Flight Track Log - Related Links

Times and Time Zones

All times are in EDT time to prevent confusion due to time zone crossing. See the LOF3416 flight status page for this flight to view local times or setup timezone preferences in your user account.

Time Position Orientation Groundspeed Altitude Reporting Facility
EDT Latitude Longitude Course Direction KTS MPH feet Rate Location/Type
Fri 07:48:16 PM 37.3517 -93.2872 16° North 241 277 7,500  Level Kansas City Center
Fri 07:49:18 PM 37.4289 -93.2247 33° Northeast 269 310 10,300 2,032 Climbing Kansas City Center
Fri 07:50:20 PM 37.4917 -93.1647 37° Northeast 280 322 11,700 1,355 Climbing Kansas City Center
Fri 07:51:00 PM 37.7109 -92.9558 38° Northeast  Level FlightAware Approximate
Fri 07:51:22 PM 37.5644 -93.0994 35° Northeast 310 357 13,100  Level Kansas City Center
Fri 07:52:00 PM 37.7878 -92.8790 38° Northeast  Level FlightAware Approximate
Fri 07:52:24 PM 37.6411 -93.0300 36° Northeast 325 374 14,500  Level Kansas City Center
Fri 07:53:26 PM 37.7206 -92.9586 35° Northeast 345 397 15,900 1,355 Climbing Kansas City Center
Fri 07:54:28 PM 37.7983 -92.8867 36° Northeast 347 399 17,300 1,306 Climbing Kansas City Center
Fri 07:55:30 PM 37.8772 -92.8139 36° Northeast 349 402 18,600 1,403 Climbing Kansas City Center
Fri 07:56:32 PM 37.9689 -92.7300 36° Northeast 352 405 20,200 1,452 Climbing Kansas City Center
Fri 07:57:34 PM 38.0469 -92.6586 36° Northeast 348 400 21,600 1,306 Climbing Kansas City Center
Fri 07:58:36 PM 38.1250 -92.5878 36° Northeast 347 399 22,900 1,306 Climbing Kansas City Center
Fri 07:59:38 PM 38.2103 -92.5089 36° Northeast 346 398 24,300 1,258 Climbing Kansas City Center
Fri 08:00:40 PM 38.2889 -92.4358 36° Northeast 346 398 25,500 1,161 Climbing Kansas City Center
Fri 08:01:42 PM 38.3667 -92.3631 36° Northeast 345 397 26,700 720 Climbing Kansas City Center
Fri 08:02:45 PM 38.4489 -92.2878 36° Northeast 354 407 27,000 144 Climbing Kansas City Center
Fri 08:03:47 PM 38.5364 -92.2053 36° Northeast 380 437 27,000  Level Kansas City Center
Fri 08:04:49 PM 38.6461 -92.1003 37° Northeast 404 465 27,000  Level Kansas City Center
Fri 08:05:51 PM 38.7414 -92.0097 37° Northeast 418 481 27,000  Level Kansas City Center
Fri 08:06:53 PM 38.8381 -91.9192 36° Northeast 426 490 27,000  Level Kansas City Center
Fri 08:07:55 PM 38.9350 -91.8264 37° Northeast 432 497 27,000  Level Kansas City Center
Fri 08:08:57 PM 39.0328 -91.7356 36° Northeast 431 496 27,000 97 Level Kansas City Center
Fri 08:09:59 PM 39.1347 -91.6372 37° Northeast 431 496 27,200 683 Climbing Kansas City Center
Fri 08:11:00 PM 39.2297 -91.5464 37° Northeast 427 491 28,400 878 Climbing Kansas City Center
Fri 08:12:02 PM 39.3222 -91.4572 37° Northeast 420 483 29,000 290 Climbing Kansas City Center
Fri 08:13:04 PM 39.4133 -91.3686 37° Northeast 413 475 29,000  Level Kansas City Center
Fri 08:14:06 PM 39.5042 -91.2814 37° Northeast 409 471 29,000  Level Kansas City Center
Fri 08:15:08 PM 39.6108 -91.1769 37° Northeast 404 465 29,000  Level Kansas City Center
Fri 08:16:10 PM 39.7000 -91.0897 37° Northeast 402 463 29,000  Level Kansas City Center
Fri 08:17:12 PM 39.7850 -91.0050 37° Northeast 398 458 29,000  Level Kansas City Center
Fri 08:18:14 PM 39.8811 -90.9097 37° Northeast 397 457 29,000  Level Kansas City Center
Fri 08:19:16 PM 39.9689 -90.8203 38° Northeast 399 459 29,000  Level Kansas City Center
Fri 08:20:18 PM 40.0583 -90.7278 38° Northeast 407 468 29,000  Level Kansas City Center
Fri 08:21:20 PM 40.1494 -90.6358 38° Northeast 411 473 29,000  Level Kansas City Center
Fri 08:22:22 PM 40.2419 -90.5439 37° Northeast 415 478 29,000  Level Kansas City Center
Fri 08:23:24 PM 40.3319 -90.4494 39° Northeast 414 476 29,000  Level Kansas City Center
Fri 08:24:26 PM 40.4406 -90.3381 38° Northeast 412 474 29,000  Level Kansas City Center
Fri 08:25:28 PM 40.5331 -90.2442 38° Northeast 416 479 29,000  Level Kansas City Center
Fri 08:26:31 PM 40.6242 -90.1475 39° Northeast 419 482 29,000  Level Kansas City Center
Fri 08:27:33 PM 40.7150 -90.0561 37° Northeast 416 479 29,000  Level Kansas City Center
Fri 08:28:35 PM 40.8114 -89.9597 37° Northeast 415 478 29,000 -745 Level Kansas City Center
Fri 08:29:58 PM 40.9222 -89.7864 50° Northeast 415 478 27,200 -1,324 Descending Chicago Center
Fri 08:31:00 PM 40.9908 -89.6619 54° Northeast 422 486 25,800 -1,248 Descending Chicago Center
Fri 08:32:03 PM 41.0589 -89.5406 53° Northeast 425 489 24,600 -1,355 Descending Chicago Center
Fri 08:33:04 PM 41.1272 -89.4156 54° Northeast 421 484 23,000 -1,756 Descending Chicago Center
Fri 08:34:06 PM 41.1950 -89.2939 53° Northeast 415 478 21,000 -2,112 Descending Chicago Center
Fri 08:35:09 PM 41.2711 -89.1519 54° Northeast 395 455 18,600 -2,112 Descending Chicago Center
Fri 08:36:11 PM 41.3319 -89.0397 54° Northeast 381 438 16,600 -1,984 Descending Chicago Center
Fri 08:37:13 PM 41.3942 -88.9253 54° Northeast 382 440 14,500 -1,984 Descending Chicago Center
Fri 08:38:15 PM 41.4542 -88.8150 54° Northeast 374 430 12,500 -1,694 Descending Chicago Center
Fri 08:39:17 PM 41.5103 -88.7106 54° Northeast 355 409 11,000 -726 Descending Chicago Center
Fri 08:40:19 PM 41.5558 -88.5969 62° Northeast 292 336 11,000 -97 Level Chicago Center
Fri 08:41:21 PM 41.5958 -88.4983 61° Northeast 299 344 10,800 -1,065 Descending Chicago Center
Fri 08:42:23 PM 41.6408 -88.4100 56° Northeast 288 331 8,800 -1,742 Descending Chicago Center
Fri 08:43:25 PM 41.7014 -88.3539 35° Northeast 271 312 7,200 -871 Descending Chicago Center
Fri 08:44:27 PM 41.7744 -88.3233 17° North 275 316 7,000 -97 Descending Chicago Center
Fri 08:45:29 PM 41.8442 -88.2853 22° Northeast 270 311 7,000 -816 Level Chicago Center
Fri 08:46:32 PM 41.9139 -88.2125 38° Northeast 263 303 5,300 -1,440 Descending Chicago Center
Fri 08:47:34 PM 41.9589 -88.1519 45° Northeast 239 275 4,000 -1,091 Descending Chicago Center
Fri 08:48:33 PM 41.9667 -88.0833 81° East 198 228 3,100 -958 Descending Chicago TRACON
Fri 08:49:33 PM 41.9667 -88.0167 90° East 155 178 2,100 -900 Descending Chicago TRACON
Fri 08:50:33 PM 41.9667 -87.9667 90° East 124 143 1,300 -800 Descending Chicago TRACON
Fri 08:52:00 PM 41.9667 -87.9000 75° East  Level FlightAware Approximate
Fri 08:59:00 PM 41.9817 -87.9067 75° East  Level Estimated

Login

Don't have an account? Register now (free) for customized features, flight alerts, and more!